Brak ostrzeżeń pogodowych   -   Brak ostrzeżeń pogodowych

Raporty Pogodowe z Lotnisk

 

EPKK - Krakow/Balice, Poland
Odległość od stacji: Zd 81km
Aktualizacja: 18/04/2021 05:00
Mgła, Przeważnie pochmurno
Mgła, Przeważnie pochmurno
 Wiatr z Pd
Wiatr: Pd 2 km/h
Temperatura: 4°C
Punkt Rosy: 4°C
Wilgotność Względna: 100%
Ciśnienie Względne: 1018 hPa
Podsumowanie: Mgła
Chmury: Przeważnie pochmurno
Widoczność: 1 km
Szczegóły chmur: Częściowe zachmurzenie 122 m
Przeważnie pochmurno 183 m
2021/04/18 03:00 EPKK 180300Z 18001KT 1100 R25/2000N BR SCT004 BKN006 04/04 Q1018
EPRZ - Rzeszow/Jasionka, Poland
Odległość od stacji: Ws 81km
Aktualizacja: 18/04/2021 05:00
Mgła, Przeważnie pochmurno
Mgła, Przeważnie pochmurno
 Wiatr z ZdPnZd
Wiatr: ZdPnZd 4 km/h
Temperatura: 2°C
Punkt Rosy: 2°C
Wilgotność Względna: 100%
Ciśnienie Względne: 1018 hPa
Podsumowanie: Mgła
Chmury: Przeważnie pochmurno
Widoczność: 3 km
Szczegóły chmur: Przeważnie pochmurno 1006 m
2021/04/18 03:00 EPRZ 180300Z 29002KT 3000 BR BKN033 02/02 Q1018
 
EPKT - Katowice/Pyrzowice, Poland
Odległość od stacji: ZdPnZd 141km
Aktualizacja: 18/04/2021 05:00
Mgła, Pochmurnie
Mgła, Pochmurnie
 Wiatr z PnWs
Wiatr: PnWs 2 km/h
Temperatura: 4°C
Punkt Rosy: 4°C
Wilgotność Względna: 100%
Ciśnienie Względne: 1018 hPa
Podsumowanie: Mgła
Chmury: Pochmurnie
Widoczność: 0 km
Szczegóły chmur: Częściowe zachmurzenie 30 m
Przeważnie pochmurno 91 m
Pochmurnie 152 m
2021/04/18 03:00 EPKT 180300Z 05001KT 0300 R27/1000N FG SCT001 BKN003 OVC005 04/04 Q1018
EPWA - Warsaw/Okecie, Poland
Odległość od stacji: Pn 240km
Aktualizacja: 18/04/2021 05:00
Mgła, Pochmurnie
Mgła, Pochmurnie
 Wiatr z PdWs
Wiatr: PdWs 7 km/h
Temperatura: 6°C
Temperatura Odczuwalna: 4°C
Punkt Rosy: 6°C
Wilgotność Względna: 100%
Ciśnienie Względne: 1019 hPa
Podsumowanie: Mgła
Chmury: Pochmurnie
Widoczność: 1 km
Szczegóły chmur: Pochmurnie 61 m
2021/04/18 03:00 EPWA 180300Z 14004KT 100V170 1100 R33/1200N BR OVC002 06/06 Q1019 TEMPO 0700 FG
 
EPLL - Lodz/Lublinek, Poland
Odległość od stacji: PnPnZd 218km
Aktualizacja: 18/04/2021 05:00
Mgła, Pochmurnie
Mgła, Pochmurnie
 Wiatr z varies
Wiatr: varies 2 km/h
Temperatura: 6°C
Punkt Rosy: 6°C
Wilgotność Względna: 100%
Ciśnienie Względne: 1018 hPa
Podsumowanie: Mgła
Chmury: Pochmurnie
Widoczność: 2 km
Szczegóły chmur: Pochmurnie 91 m
2021/04/18 03:00 EPLL 180300Z VRB01KT 2000 BR OVC003 06/06 Q1018
EPWR - Wroclaw/Strachowice, Poland
Odległość od stacji: ZdPnZd 311km
Aktualizacja: 18/04/2021 05:00
Mgła, Pochmurnie
Mgła, Pochmurnie
 Wiatr z ZdPnZd
Wiatr: ZdPnZd 9 km/h
Temperatura: 5°C
Temperatura Odczuwalna: 3°C
Punkt Rosy: 5°C
Wilgotność Względna: 100%
Ciśnienie Względne: 1019 hPa
Podsumowanie: Mgła
Chmury: Pochmurnie
Widoczność: 4 km
Szczegóły chmur: Pochmurnie 335 m
2021/04/18 03:00 EPWR 180300Z 29005KT 3500 BR OVC011 05/05 Q1019
 
EPGD - Gdansk/Rebiechowo, Poland
Odległość od stacji: PnZd 553km
Aktualizacja: 18/04/2021 05:00
Bezchmurnie
Bezchmurnie
 Wiatr z varies
Wiatr: varies 2 km/h
Temperatura: 5°C
Punkt Rosy: 4°C
Wilgotność Względna: 93%
Ciśnienie Względne: 1020 hPa
Podsumowanie: Bezchmurnie
Widoczność: większa niż 10 km
2021/04/18 03:00 EPGD 180300Z VRB01KT CAVOK 05/04 Q1020
EPSC - Szczecin/Goleniow, Poland
Odległość od stacji: ZdPnZd 635km
Aktualizacja: 18/04/2021 05:00
Bezchmurnie
Bezchmurnie
 Wiatr z Pn
Wiatr: Pn 6 km/h
Temperatura: 3°C
Punkt Rosy: 2°C
Wilgotność Względna: 93%
Ciśnienie Względne: 1020 hPa
Podsumowanie: Bezchmurnie
Widoczność: większa niż 10 km
2021/04/18 03:00 EPSC 180300Z 01003KT 310V050 CAVOK 03/02 Q1020